sensor_id;sensor_type;location;lat;lon;timestamp;temperature;humidity
68385;DHT22;55336;43.062;25.626;2023-05-18T00:00:42;11.90;99.90
68385;DHT22;55336;43.062;25.626;2023-05-18T00:03:09;11.90;99.90
68385;DHT22;55336;43.062;25.626;2023-05-18T00:05:35;11.90;99.90
68385;DHT22;55336;43.062;25.626;2023-05-18T00:08:02;11.80;99.90
68385;DHT22;55336;43.062;25.626;2023-05-18T00:10:28;11.90;99.90
68385;DHT22;55336;43.062;25.626;2023-05-18T00:12:56;11.90;99.90
68385;DHT22;55336;43.062;25.626;2023-05-18T00:15:24;11.90;99.90
68385;DHT22;55336;43.062;25.626;2023-05-18T00:17:50;12.00;99.90
68385;DHT22;55336;43.062;25.626;2023-05-18T00:20:17;11.90;99.90
68385;DHT22;55336;43.062;25.626;2023-05-18T00:22:46;12.00;99.90
68385;DHT22;55336;43.062;25.626;2023-05-18T00:25:12;12.00;99.90
68385;DHT22;55336;43.062;25.626;2023-05-18T00:27:38;12.10;99.90
68385;DHT22;55336;43.062;25.626;2023-05-18T00:30:04;12.10;99.90
68385;DHT22;55336;43.062;25.626;2023-05-18T00:32:30;12.10;99.90
68385;DHT22;55336;43.062;25.626;2023-05-18T00:34:56;12.10;99.90
68385;DHT22;55336;43.062;25.626;2023-05-18T00:37:23;12.20;99.90
68385;DHT22;55336;43.062;25.626;2023-05-18T00:39:48;12.10;99.90
68385;DHT22;55336;43.062;25.626;2023-05-18T00:42:14;12.10;99.90
68385;DHT22;55336;43.062;25.626;2023-05-18T00:44:42;12.20;99.90
68385;DHT22;55336;43.062;25.626;2023-05-18T00:47:08;12.20;99.90
68385;DHT22;55336;43.062;25.626;2023-05-18T00:49:34;12.20;99.90
68385;DHT22;55336;43.062;25.626;2023-05-18T00:52:00;12.20;99.90
68385;DHT22;55336;43.062;25.626;2023-05-18T00:54:27;12.20;99.90
68385;DHT22;55336;43.062;25.626;2023-05-18T00:56:53;12.20;99.90
68385;DHT22;55336;43.062;25.626;2023-05-18T00:59:18;12.20;99.90
68385;DHT22;55336;43.062;25.626;2023-05-18T01:01:46;12.30;99.90
68385;DHT22;55336;43.062;25.626;2023-05-18T01:04:15;12.20;99.90
68385;DHT22;55336;43.062;25.626;2023-05-18T01:06:41;12.20;99.90
68385;DHT22;55336;43.062;25.626;2023-05-18T01:09:09;12.20;99.90
68385;DHT22;55336;43.062;25.626;2023-05-18T01:11:47;12.20;99.90
68385;DHT22;55336;43.062;25.626;2023-05-18T01:14:21;12.20;99.90
68385;DHT22;55336;43.062;25.626;2023-05-18T01:17:04;12.20;99.90
68385;DHT22;55336;43.062;25.626;2023-05-18T01:22:02;12.10;99.90
68385;DHT22;55336;43.062;25.626;2023-05-18T01:24:34;12.20;99.90
68385;DHT22;55336;43.062;25.626;2023-05-18T01:27:02;12.20;99.90
68385;DHT22;55336;43.062;25.626;2023-05-18T01:29:31;12.20;99.90
68385;DHT22;55336;43.062;25.626;2023-05-18T01:31:57;12.20;99.90
68385;DHT22;55336;43.062;25.626;2023-05-18T01:34:23;12.20;99.90
68385;DHT22;55336;43.062;25.626;2023-05-18T01:36:49;12.30;99.90
68385;DHT22;55336;43.062;25.626;2023-05-18T01:39:17;12.30;99.90
68385;DHT22;55336;43.062;25.626;2023-05-18T01:41:50;12.30;99.90
68385;DHT22;55336;43.062;25.626;2023-05-18T01:44:18;12.30;99.90
68385;DHT22;55336;43.062;25.626;2023-05-18T01:49:26;12.30;99.90
68385;DHT22;55336;43.062;25.626;2023-05-18T01:51:52;12.30;99.90
68385;DHT22;55336;43.062;25.626;2023-05-18T01:54:19;12.30;99.90
68385;DHT22;55336;43.062;25.626;2023-05-18T01:56:46;12.30;99.90
68385;DHT22;55336;43.062;25.626;2023-05-18T01:59:13;12.30;99.90
68385;DHT22;55336;43.062;25.626;2023-05-18T02:01:40;12.30;99.90
68385;DHT22;55336;43.062;25.626;2023-05-18T02:04:06;12.30;99.90
68385;DHT22;55336;43.062;25.626;2023-05-18T02:06:32;12.30;99.90
68385;DHT22;55336;43.062;25.626;2023-05-18T02:08:58;12.30;99.90
68385;DHT22;55336;43.062;25.626;2023-05-18T02:11:25;12.40;99.90
68385;DHT22;55336;43.062;25.626;2023-05-18T02:13:51;12.30;99.90
68385;DHT22;55336;43.062;25.626;2023-05-18T02:16:17;12.40;99.90
68385;DHT22;55336;43.062;25.626;2023-05-18T02:18:44;12.40;99.90
68385;DHT22;55336;43.062;25.626;2023-05-18T02:21:10;12.40;99.90
68385;DHT22;55336;43.062;25.626;2023-05-18T02:23:38;12.40;99.90
68385;DHT22;55336;43.062;25.626;2023-05-18T02:26:04;12.40;99.90
68385;DHT22;55336;43.062;25.626;2023-05-18T02:28:30;12.40;99.90
68385;DHT22;55336;43.062;25.626;2023-05-18T02:31:06;12.40;99.90
68385;DHT22;55336;43.062;25.626;2023-05-18T02:33:32;12.40;99.90
68385;DHT22;55336;43.062;25.626;2023-05-18T02:36:08;12.50;99.90
68385;DHT22;55336;43.062;25.626;2023-05-18T02:38:37;12.50;99.90
68385;DHT22;55336;43.062;25.626;2023-05-18T02:41:03;12.50;99.90
68385;DHT22;55336;43.062;25.626;2023-05-18T02:43:32;12.50;99.90
68385;DHT22;55336;43.062;25.626;2023-05-18T02:45:58;12.50;99.90
68385;DHT22;55336;43.062;25.626;2023-05-18T02:48:24;12.50;99.90
68385;DHT22;55336;43.062;25.626;2023-05-18T02:50:50;12.50;99.90
68385;DHT22;55336;43.062;25.626;2023-05-18T02:53:16;12.50;99.90
68385;DHT22;55336;43.062;25.626;2023-05-18T02:55:42;12.50;99.90
68385;DHT22;55336;43.062;25.626;2023-05-18T02:58:08;12.40;99.90
68385;DHT22;55336;43.062;25.626;2023-05-18T03:00:34;12.50;99.90
68385;DHT22;55336;43.062;25.626;2023-05-18T03:03:00;12.50;99.90
68385;DHT22;55336;43.062;25.626;2023-05-18T03:05:27;12.50;99.90
68385;DHT22;55336;43.062;25.626;2023-05-18T03:07:53;12.50;99.90
68385;DHT22;55336;43.062;25.626;2023-05-18T03:10:19;12.50;99.90
68385;DHT22;55336;43.062;25.626;2023-05-18T03:12:45;12.50;99.90
68385;DHT22;55336;43.062;25.626;2023-05-18T03:15:11;12.50;99.90
68385;DHT22;55336;43.062;25.626;2023-05-18T03:17:38;12.40;99.90
68385;DHT22;55336;43.062;25.626;2023-05-18T03:20:08;12.50;99.90
68385;DHT22;55336;43.062;25.626;2023-05-18T03:22:39;12.50;99.90
68385;DHT22;55336;43.062;25.626;2023-05-18T03:25:05;12.50;99.90
68385;DHT22;55336;43.062;25.626;2023-05-18T03:27:31;12.50;99.90
68385;DHT22;55336;43.062;25.626;2023-05-18T03:29:57;12.50;99.90
68385;DHT22;55336;43.062;25.626;2023-05-18T03:32:23;12.50;99.90
68385;DHT22;55336;43.062;25.626;2023-05-18T03:34:52;12.60;99.90
68385;DHT22;55336;43.062;25.626;2023-05-18T03:37:18;12.60;99.90
68385;DHT22;55336;43.062;25.626;2023-05-18T03:39:44;12.60;99.90
68385;DHT22;55336;43.062;25.626;2023-05-18T03:42:10;12.60;99.90
68385;DHT22;55336;43.062;25.626;2023-05-18T03:44:36;12.70;99.90
68385;DHT22;55336;43.062;25.626;2023-05-18T03:47:02;12.80;99.90
68385;DHT22;55336;43.062;25.626;2023-05-18T03:49:28;12.80;99.90
68385;DHT22;55336;43.062;25.626;2023-05-18T03:51:54;12.90;99.90
68385;DHT22;55336;43.062;25.626;2023-05-18T03:54:20;12.90;99.90
68385;DHT22;55336;43.062;25.626;2023-05-18T03:56:46;12.90;99.90
68385;DHT22;55336;43.062;25.626;2023-05-18T03:59:12;13.00;99.90
68385;DHT22;55336;43.062;25.626;2023-05-18T04:01:38;13.00;99.90
68385;DHT22;55336;43.062;25.626;2023-05-18T04:04:07;12.90;99.90
68385;DHT22;55336;43.062;25.626;2023-05-18T04:06:33;13.00;99.90
68385;DHT22;55336;43.062;25.626;2023-05-18T04:09:02;13.10;99.90
68385;DHT22;55336;43.062;25.626;2023-05-18T04:11:29;13.10;99.90
68385;DHT22;55336;43.062;25.626;2023-05-18T04:13:55;13.10;99.90
68385;DHT22;55336;43.062;25.626;2023-05-18T04:16:26;13.10;99.90
68385;DHT22;55336;43.062;25.626;2023-05-18T04:18:52;13.10;99.90
68385;DHT22;55336;43.062;25.626;2023-05-18T04:21:19;13.20;99.90
68385;DHT22;55336;43.062;25.626;2023-05-18T04:23:45;13.30;99.90
68385;DHT22;55336;43.062;25.626;2023-05-18T04:26:12;13.30;99.90
68385;DHT22;55336;43.062;25.626;2023-05-18T04:28:44;13.40;99.90
68385;DHT22;55336;43.062;25.626;2023-05-18T04:31:11;13.50;99.90
68385;DHT22;55336;43.062;25.626;2023-05-18T04:33:39;13.60;99.90
68385;DHT22;55336;43.062;25.626;2023-05-18T04:36:05;13.70;99.90
68385;DHT22;55336;43.062;25.626;2023-05-18T04:38:34;13.60;99.90
68385;DHT22;55336;43.062;25.626;2023-05-18T04:41:00;13.70;99.90
68385;DHT22;55336;43.062;25.626;2023-05-18T04:43:30;13.90;99.90
68385;DHT22;55336;43.062;25.626;2023-05-18T04:45:57;14.00;99.90
68385;DHT22;55336;43.062;25.626;2023-05-18T04:48:23;14.00;99.90
68385;DHT22;55336;43.062;25.626;2023-05-18T04:50:50;14.10;99.90
68385;DHT22;55336;43.062;25.626;2023-05-18T04:53:19;14.20;99.90
68385;DHT22;55336;43.062;25.626;2023-05-18T04:55:48;14.20;99.90
68385;DHT22;55336;43.062;25.626;2023-05-18T04:58:16;14.10;99.90
68385;DHT22;55336;43.062;25.626;2023-05-18T05:00:43;14.20;99.90
68385;DHT22;55336;43.062;25.626;2023-05-18T05:03:09;14.40;99.90
68385;DHT22;55336;43.062;25.626;2023-05-18T05:05:35;14.40;99.90
68385;DHT22;55336;43.062;25.626;2023-05-18T05:08:01;14.50;99.90
68385;DHT22;55336;43.062;25.626;2023-05-18T05:10:29;14.60;99.90
68385;DHT22;55336;43.062;25.626;2023-05-18T05:12:54;14.80;99.90
68385;DHT22;55336;43.062;25.626;2023-05-18T05:15:20;14.90;99.90
68385;DHT22;55336;43.062;25.626;2023-05-18T05:17:47;15.00;99.90
68385;DHT22;55336;43.062;25.626;2023-05-18T05:20:12;15.10;99.90
68385;DHT22;55336;43.062;25.626;2023-05-18T05:22:38;15.20;99.90
68385;DHT22;55336;43.062;25.626;2023-05-18T05:25:04;15.10;99.90
68385;DHT22;55336;43.062;25.626;2023-05-18T05:27:31;15.20;99.90
68385;DHT22;55336;43.062;25.626;2023-05-18T05:29:57;15.40;99.90
68385;DHT22;55336;43.062;25.626;2023-05-18T05:32:23;15.20;99.90
68385;DHT22;55336;43.062;25.626;2023-05-18T05:34:49;15.40;99.90
68385;DHT22;55336;43.062;25.626;2023-05-18T05:37:16;15.40;99.90
68385;DHT22;55336;43.062;25.626;2023-05-18T05:39:42;15.60;99.90
68385;DHT22;55336;43.062;25.626;2023-05-18T05:42:07;15.80;99.90
68385;DHT22;55336;43.062;25.626;2023-05-18T05:44:33;16.00;99.90
68385;DHT22;55336;43.062;25.626;2023-05-18T05:46:59;16.10;99.90
68385;DHT22;55336;43.062;25.626;2023-05-18T05:49:25;16.30;99.90
68385;DHT22;55336;43.062;25.626;2023-05-18T05:51:51;16.30;99.90
68385;DHT22;55336;43.062;25.626;2023-05-18T05:54:16;16.30;99.90
68385;DHT22;55336;43.062;25.626;2023-05-18T05:56:42;16.70;99.90
68385;DHT22;55336;43.062;25.626;2023-05-18T05:59:08;16.50;99.90
68385;DHT22;55336;43.062;25.626;2023-05-18T06:01:35;16.50;99.90
68385;DHT22;55336;43.062;25.626;2023-05-18T06:04:00;16.40;99.90
68385;DHT22;55336;43.062;25.626;2023-05-18T06:06:28;16.50;99.90
68385;DHT22;55336;43.062;25.626;2023-05-18T06:08:54;16.50;99.90
68385;DHT22;55336;43.062;25.626;2023-05-18T06:11:20;16.60;99.90
68385;DHT22;55336;43.062;25.626;2023-05-18T06:13:45;16.60;99.90
68385;DHT22;55336;43.062;25.626;2023-05-18T06:16:11;16.60;99.90
68385;DHT22;55336;43.062;25.626;2023-05-18T06:18:37;16.70;99.90
68385;DHT22;55336;43.062;25.626;2023-05-18T06:21:04;16.70;99.90
68385;DHT22;55336;43.062;25.626;2023-05-18T06:23:30;16.80;99.90
68385;DHT22;55336;43.062;25.626;2023-05-18T06:25:55;16.90;99.90
68385;DHT22;55336;43.062;25.626;2023-05-18T06:28:21;16.80;99.90
68385;DHT22;55336;43.062;25.626;2023-05-18T06:30:47;16.70;99.90
68385;DHT22;55336;43.062;25.626;2023-05-18T06:33:13;16.80;99.90
68385;DHT22;55336;43.062;25.626;2023-05-18T06:35:39;16.70;99.90
68385;DHT22;55336;43.062;25.626;2023-05-18T06:38:04;16.80;99.90
68385;DHT22;55336;43.062;25.626;2023-05-18T06:40:30;16.70;99.90
68385;DHT22;55336;43.062;25.626;2023-05-18T06:42:56;16.80;99.90
68385;DHT22;55336;43.062;25.626;2023-05-18T06:45:21;16.80;99.90
68385;DHT22;55336;43.062;25.626;2023-05-18T06:47:47;16.80;99.90
68385;DHT22;55336;43.062;25.626;2023-05-18T06:50:13;16.80;99.90
68385;DHT22;55336;43.062;25.626;2023-05-18T06:52:38;16.50;99.90
68385;DHT22;55336;43.062;25.626;2023-05-18T06:55:04;16.50;99.90
68385;DHT22;55336;43.062;25.626;2023-05-18T06:57:30;16.50;99.90
68385;DHT22;55336;43.062;25.626;2023-05-18T06:59:56;16.50;99.90
68385;DHT22;55336;43.062;25.626;2023-05-18T07:02:22;16.50;99.90
68385;DHT22;55336;43.062;25.626;2023-05-18T07:04:48;16.40;99.90
68385;DHT22;55336;43.062;25.626;2023-05-18T07:07:14;16.40;99.90
68385;DHT22;55336;43.062;25.626;2023-05-18T07:09:41;16.40;99.90
68385;DHT22;55336;43.062;25.626;2023-05-18T07:12:13;16.50;99.90
68385;DHT22;55336;43.062;25.626;2023-05-18T07:14:39;16.40;99.90
68385;DHT22;55336;43.062;25.626;2023-05-18T07:17:05;16.40;99.90
68385;DHT22;55336;43.062;25.626;2023-05-18T07:19:31;16.40;99.90
68385;DHT22;55336;43.062;25.626;2023-05-18T07:21:57;16.50;99.90
68385;DHT22;55336;43.062;25.626;2023-05-18T07:24:24;16.50;99.90
68385;DHT22;55336;43.062;25.626;2023-05-18T07:26:49;16.60;99.90
68385;DHT22;55336;43.062;25.626;2023-05-18T07:29:15;16.60;99.90
68385;DHT22;55336;43.062;25.626;2023-05-18T07:31:41;16.70;99.90
68385;DHT22;55336;43.062;25.626;2023-05-18T07:34:06;16.80;99.90
68385;DHT22;55336;43.062;25.626;2023-05-18T07:36:32;16.90;99.90
68385;DHT22;55336;43.062;25.626;2023-05-18T07:38:58;17.10;99.90
68385;DHT22;55336;43.062;25.626;2023-05-18T07:41:25;17.10;99.90
68385;DHT22;55336;43.062;25.626;2023-05-18T07:43:52;17.00;99.90
68385;DHT22;55336;43.062;25.626;2023-05-18T07:46:18;17.10;99.90
68385;DHT22;55336;43.062;25.626;2023-05-18T07:48:44;17.10;99.90
68385;DHT22;55336;43.062;25.626;2023-05-18T07:51:10;17.00;99.90
68385;DHT22;55336;43.062;25.626;2023-05-18T07:53:36;17.00;99.90
68385;DHT22;55336;43.062;25.626;2023-05-18T07:56:03;16.90;99.90
68385;DHT22;55336;43.062;25.626;2023-05-18T07:58:28;16.80;99.90
68385;DHT22;55336;43.062;25.626;2023-05-18T08:00:54;16.70;99.90
68385;DHT22;55336;43.062;25.626;2023-05-18T08:03:20;16.60;99.90
68385;DHT22;55336;43.062;25.626;2023-05-18T08:05:45;16.60;99.90
68385;DHT22;55336;43.062;25.626;2023-05-18T08:08:11;16.60;99.90
68385;DHT22;55336;43.062;25.626;2023-05-18T08:10:42;16.50;99.90
68385;DHT22;55336;43.062;25.626;2023-05-18T08:13:07;16.60;99.90
68385;DHT22;55336;43.062;25.626;2023-05-18T08:15:34;16.60;99.90
68385;DHT22;55336;43.062;25.626;2023-05-18T08:17:59;16.40;99.90
68385;DHT22;55336;43.062;25.626;2023-05-18T08:20:25;16.60;99.90
68385;DHT22;55336;43.062;25.626;2023-05-18T08:22:54;16.50;99.90
68385;DHT22;55336;43.062;25.626;2023-05-18T08:25:21;16.60;99.90
68385;DHT22;55336;43.062;25.626;2023-05-18T08:27:46;16.50;99.90
68385;DHT22;55336;43.062;25.626;2023-05-18T08:30:12;16.60;99.90
68385;DHT22;55336;43.062;25.626;2023-05-18T08:32:38;16.70;99.90
68385;DHT22;55336;43.062;25.626;2023-05-18T08:35:04;16.90;99.90
68385;DHT22;55336;43.062;25.626;2023-05-18T08:37:30;17.10;99.90
68385;DHT22;55336;43.062;25.626;2023-05-18T08:39:56;16.80;99.90
68385;DHT22;55336;43.062;25.626;2023-05-18T08:42:22;16.90;99.90
68385;DHT22;55336;43.062;25.626;2023-05-18T08:47:17;16.90;99.90
68385;DHT22;55336;43.062;25.626;2023-05-18T08:49:50;16.90;99.90
68385;DHT22;55336;43.062;25.626;2023-05-18T08:52:16;16.70;99.90
68385;DHT22;55336;43.062;25.626;2023-05-18T08:54:42;16.40;99.90
68385;DHT22;55336;43.062;25.626;2023-05-18T08:57:08;16.30;99.90
68385;DHT22;55336;43.062;25.626;2023-05-18T08:59:35;16.30;99.90
68385;DHT22;55336;43.062;25.626;2023-05-18T09:02:03;16.10;99.90
68385;DHT22;55336;43.062;25.626;2023-05-18T09:04:29;16.10;99.90
68385;DHT22;55336;43.062;25.626;2023-05-18T09:06:58;16.50;99.90
68385;DHT22;55336;43.062;25.626;2023-05-18T09:09:26;16.70;99.90
68385;DHT22;55336;43.062;25.626;2023-05-18T09:11:52;16.90;99.90
68385;DHT22;55336;43.062;25.626;2023-05-18T09:14:20;17.20;99.90
68385;DHT22;55336;43.062;25.626;2023-05-18T09:16:53;17.20;99.90
68385;DHT22;55336;43.062;25.626;2023-05-18T09:19:18;17.40;99.90
68385;DHT22;55336;43.062;25.626;2023-05-18T09:21:45;17.50;99.90
68385;DHT22;55336;43.062;25.626;2023-05-18T09:24:10;17.70;99.90
68385;DHT22;55336;43.062;25.626;2023-05-18T09:26:39;17.80;99.90
68385;DHT22;55336;43.062;25.626;2023-05-18T09:29:18;17.80;99.90
68385;DHT22;55336;43.062;25.626;2023-05-18T09:31:44;17.80;99.90
68385;DHT22;55336;43.062;25.626;2023-05-18T09:34:11;17.90;99.90
68385;DHT22;55336;43.062;25.626;2023-05-18T09:36:36;17.90;99.90
68385;DHT22;55336;43.062;25.626;2023-05-18T09:39:06;18.00;99.90
68385;DHT22;55336;43.062;25.626;2023-05-18T09:41:33;18.10;99.90
68385;DHT22;55336;43.062;25.626;2023-05-18T09:44:01;17.80;99.90
68385;DHT22;55336;43.062;25.626;2023-05-18T09:46:34;17.60;99.90
68385;DHT22;55336;43.062;25.626;2023-05-18T09:49:00;17.30;99.90
68385;DHT22;55336;43.062;25.626;2023-05-18T09:51:27;17.10;99.90
68385;DHT22;55336;43.062;25.626;2023-05-18T09:53:54;17.00;99.90
68385;DHT22;55336;43.062;25.626;2023-05-18T09:56:25;17.00;99.90
68385;DHT22;55336;43.062;25.626;2023-05-18T09:58:51;17.10;99.90
68385;DHT22;55336;43.062;25.626;2023-05-18T10:01:17;17.00;99.90
68385;DHT22;55336;43.062;25.626;2023-05-18T10:03:43;16.90;99.90
68385;DHT22;55336;43.062;25.626;2023-05-18T10:06:10;16.80;99.90
68385;DHT22;55336;43.062;25.626;2023-05-18T10:08:39;16.90;99.90
68385;DHT22;55336;43.062;25.626;2023-05-18T10:11:05;17.00;99.90
68385;DHT22;55336;43.062;25.626;2023-05-18T10:13:31;17.10;99.90
68385;DHT22;55336;43.062;25.626;2023-05-18T10:15:59;17.30;99.90
68385;DHT22;55336;43.062;25.626;2023-05-18T10:18:25;17.30;99.90
68385;DHT22;55336;43.062;25.626;2023-05-18T10:20:52;17.50;99.90
68385;DHT22;55336;43.062;25.626;2023-05-18T10:23:18;17.70;99.90
68385;DHT22;55336;43.062;25.626;2023-05-18T10:25:45;17.60;99.90
68385;DHT22;55336;43.062;25.626;2023-05-18T10:28:11;17.40;99.90
68385;DHT22;55336;43.062;25.626;2023-05-18T10:30:39;17.40;99.90
68385;DHT22;55336;43.062;25.626;2023-05-18T10:33:05;17.50;99.90
68385;DHT22;55336;43.062;25.626;2023-05-18T10:35:32;17.60;99.90
68385;DHT22;55336;43.062;25.626;2023-05-18T10:37:58;17.60;99.90
68385;DHT22;55336;43.062;25.626;2023-05-18T10:40:26;17.40;99.90
68385;DHT22;55336;43.062;25.626;2023-05-18T10:42:52;17.10;99.90
68385;DHT22;55336;43.062;25.626;2023-05-18T10:45:20;17.00;99.90
68385;DHT22;55336;43.062;25.626;2023-05-18T10:47:46;16.80;99.90
68385;DHT22;55336;43.062;25.626;2023-05-18T10:50:12;16.90;99.90
68385;DHT22;55336;43.062;25.626;2023-05-18T10:52:39;17.20;99.90
68385;DHT22;55336;43.062;25.626;2023-05-18T10:55:06;17.40;99.90
68385;DHT22;55336;43.062;25.626;2023-05-18T10:57:36;17.30;99.90
68385;DHT22;55336;43.062;25.626;2023-05-18T11:00:04;17.30;99.90
68385;DHT22;55336;43.062;25.626;2023-05-18T11:02:31;17.40;99.90
68385;DHT22;55336;43.062;25.626;2023-05-18T11:05:03;17.40;99.90
68385;DHT22;55336;43.062;25.626;2023-05-18T11:07:29;17.20;99.90
68385;DHT22;55336;43.062;25.626;2023-05-18T11:09:59;17.00;99.90
68385;DHT22;55336;43.062;25.626;2023-05-18T11:12:25;17.40;99.90
68385;DHT22;55336;43.062;25.626;2023-05-18T11:14:52;17.80;99.90
68385;DHT22;55336;43.062;25.626;2023-05-18T11:17:21;17.90;99.90
68385;DHT22;55336;43.062;25.626;2023-05-18T11:23:19;18.30;99.90
68385;DHT22;55336;43.062;25.626;2023-05-18T11:27:51;18.00;99.90
68385;DHT22;55336;43.062;25.626;2023-05-18T11:30:26;18.10;99.90
68385;DHT22;55336;43.062;25.626;2023-05-18T11:32:54;17.80;99.90
68385;DHT22;55336;43.062;25.626;2023-05-18T11:35:32;17.80;99.90
68385;DHT22;55336;43.062;25.626;2023-05-18T11:38:06;17.70;99.90
68385;DHT22;55336;43.062;25.626;2023-05-18T11:43:23;17.10;99.90
68385;DHT22;55336;43.062;25.626;2023-05-18T11:45:52;16.90;99.90
68385;DHT22;55336;43.062;25.626;2023-05-18T11:50:47;17.20;99.90
68385;DHT22;55336;43.062;25.626;2023-05-18T11:53:14;17.30;99.90
68385;DHT22;55336;43.062;25.626;2023-05-18T11:55:40;17.40;99.90
68385;DHT22;55336;43.062;25.626;2023-05-18T11:58:06;17.40;99.90
68385;DHT22;55336;43.062;25.626;2023-05-18T12:00:32;17.50;99.90
68385;DHT22;55336;43.062;25.626;2023-05-18T12:02:58;17.40;99.90
68385;DHT22;55336;43.062;25.626;2023-05-18T12:05:25;17.30;99.90
68385;DHT22;55336;43.062;25.626;2023-05-18T12:07:54;17.10;99.90
68385;DHT22;55336;43.062;25.626;2023-05-18T12:10:20;16.70;99.90
68385;DHT22;55336;43.062;25.626;2023-05-18T12:12:46;16.60;99.90
68385;DHT22;55336;43.062;25.626;2023-05-18T12:15:12;16.40;99.90
68385;DHT22;55336;43.062;25.626;2023-05-18T12:17:38;16.20;99.90
68385;DHT22;55336;43.062;25.626;2023-05-18T12:20:06;16.20;99.90
68385;DHT22;55336;43.062;25.626;2023-05-18T12:22:32;16.30;99.90
68385;DHT22;55336;43.062;25.626;2023-05-18T12:24:57;16.20;99.90
68385;DHT22;55336;43.062;25.626;2023-05-18T12:27:23;16.40;99.90
68385;DHT22;55336;43.062;25.626;2023-05-18T12:29:50;16.60;99.90
68385;DHT22;55336;43.062;25.626;2023-05-18T12:32:16;17.10;99.90
68385;DHT22;55336;43.062;25.626;2023-05-18T12:34:42;17.40;99.90
68385;DHT22;55336;43.062;25.626;2023-05-18T12:37:08;17.80;99.90
68385;DHT22;55336;43.062;25.626;2023-05-18T12:39:34;18.40;99.90
68385;DHT22;55336;43.062;25.626;2023-05-18T12:42:07;18.70;99.90
68385;DHT22;55336;43.062;25.626;2023-05-18T12:44:33;18.90;99.90
68385;DHT22;55336;43.062;25.626;2023-05-18T12:47:00;19.10;99.90
68385;DHT22;55336;43.062;25.626;2023-05-18T12:49:25;19.60;99.90
68385;DHT22;55336;43.062;25.626;2023-05-18T12:51:53;19.90;99.90
68385;DHT22;55336;43.062;25.626;2023-05-18T12:54:26;20.40;99.90
68385;DHT22;55336;43.062;25.626;2023-05-18T12:56:53;19.90;99.90
68385;DHT22;55336;43.062;25.626;2023-05-18T12:59:25;19.80;99.90
68385;DHT22;55336;43.062;25.626;2023-05-18T13:01:52;19.70;99.90
68385;DHT22;55336;43.062;25.626;2023-05-18T13:04:18;19.80;99.90
68385;DHT22;55336;43.062;25.626;2023-05-18T13:06:43;19.70;99.90
68385;DHT22;55336;43.062;25.626;2023-05-18T13:09:13;19.60;99.90
68385;DHT22;55336;43.062;25.626;2023-05-18T13:11:39;19.20;99.90
68385;DHT22;55336;43.062;25.626;2023-05-18T13:14:06;18.80;99.90
68385;DHT22;55336;43.062;25.626;2023-05-18T13:16:33;18.30;99.90
68385;DHT22;55336;43.062;25.626;2023-05-18T13:18:59;18.20;99.90
68385;DHT22;55336;43.062;25.626;2023-05-18T13:21:25;18.00;99.90
68385;DHT22;55336;43.062;25.626;2023-05-18T13:23:51;18.00;99.90
68385;DHT22;55336;43.062;25.626;2023-05-18T13:26:19;17.90;99.90
68385;DHT22;55336;43.062;25.626;2023-05-18T13:28:46;17.90;99.90
68385;DHT22;55336;43.062;25.626;2023-05-18T13:31:12;17.90;99.90
68385;DHT22;55336;43.062;25.626;2023-05-18T13:33:38;17.90;99.90
68385;DHT22;55336;43.062;25.626;2023-05-18T13:36:04;17.80;99.90
68385;DHT22;55336;43.062;25.626;2023-05-18T13:38:30;17.60;99.90
68385;DHT22;55336;43.062;25.626;2023-05-18T13:41:00;17.50;99.90
68385;DHT22;55336;43.062;25.626;2023-05-18T13:43:25;17.40;99.90
68385;DHT22;55336;43.062;25.626;2023-05-18T13:45:51;17.30;99.90
68385;DHT22;55336;43.062;25.626;2023-05-18T13:48:17;17.30;99.90
68385;DHT22;55336;43.062;25.626;2023-05-18T13:50:43;17.30;99.90
68385;DHT22;55336;43.062;25.626;2023-05-18T13:53:09;17.10;99.90
68385;DHT22;55336;43.062;25.626;2023-05-18T13:55:36;17.00;99.90
68385;DHT22;55336;43.062;25.626;2023-05-18T13:58:02;17.10;99.90
68385;DHT22;55336;43.062;25.626;2023-05-18T14:00:28;17.40;99.90
68385;DHT22;55336;43.062;25.626;2023-05-18T14:02:57;17.30;99.90
68385;DHT22;55336;43.062;25.626;2023-05-18T14:05:23;17.60;99.90
68385;DHT22;55336;43.062;25.626;2023-05-18T14:07:48;17.80;99.90
68385;DHT22;55336;43.062;25.626;2023-05-18T14:10:16;17.90;99.90
68385;DHT22;55336;43.062;25.626;2023-05-18T14:12:42;18.00;99.90
68385;DHT22;55336;43.062;25.626;2023-05-18T14:15:08;18.10;99.90
68385;DHT22;55336;43.062;25.626;2023-05-18T14:17:34;17.90;99.90
68385;DHT22;55336;43.062;25.626;2023-05-18T14:20:01;18.00;99.90
68385;DHT22;55336;43.062;25.626;2023-05-18T14:22:27;17.90;99.90
68385;DHT22;55336;43.062;25.626;2023-05-18T14:24:54;17.80;99.90
68385;DHT22;55336;43.062;25.626;2023-05-18T14:27:20;17.50;99.90
68385;DHT22;55336;43.062;25.626;2023-05-18T14:29:46;17.20;99.90
68385;DHT22;55336;43.062;25.626;2023-05-18T14:32:12;17.10;99.90
68385;DHT22;55336;43.062;25.626;2023-05-18T14:34:38;16.90;99.90
68385;DHT22;55336;43.062;25.626;2023-05-18T14:37:04;16.90;99.90
68385;DHT22;55336;43.062;25.626;2023-05-18T14:39:30;16.80;99.90
68385;DHT22;55336;43.062;25.626;2023-05-18T14:41:56;16.70;99.90
68385;DHT22;55336;43.062;25.626;2023-05-18T14:44:21;16.80;99.90
68385;DHT22;55336;43.062;25.626;2023-05-18T14:46:47;16.80;99.90
68385;DHT22;55336;43.062;25.626;2023-05-18T14:49:13;16.80;99.90
68385;DHT22;55336;43.062;25.626;2023-05-18T14:51:41;16.90;99.90
68385;DHT22;55336;43.062;25.626;2023-05-18T14:54:06;17.00;99.90
68385;DHT22;55336;43.062;25.626;2023-05-18T14:56:32;17.00;99.90
68385;DHT22;55336;43.062;25.626;2023-05-18T14:58:59;17.10;99.90
68385;DHT22;55336;43.062;25.626;2023-05-18T15:01:24;17.10;99.90
68385;DHT22;55336;43.062;25.626;2023-05-18T15:03:50;17.00;99.90
68385;DHT22;55336;43.062;25.626;2023-05-18T15:06:16;16.90;99.90
68385;DHT22;55336;43.062;25.626;2023-05-18T15:08:42;17.00;99.90
68385;DHT22;55336;43.062;25.626;2023-05-18T15:11:09;17.10;99.90
68385;DHT22;55336;43.062;25.626;2023-05-18T15:13:35;17.10;99.90
68385;DHT22;55336;43.062;25.626;2023-05-18T15:16:01;17.10;99.90
68385;DHT22;55336;43.062;25.626;2023-05-18T15:18:27;17.90;99.90
68385;DHT22;55336;43.062;25.626;2023-05-18T15:20:52;17.10;99.90
68385;DHT22;55336;43.062;25.626;2023-05-18T15:23:18;17.10;99.90
68385;DHT22;55336;43.062;25.626;2023-05-18T15:25:44;17.10;99.90
68385;DHT22;55336;43.062;25.626;2023-05-18T15:28:10;17.00;99.90
68385;DHT22;55336;43.062;25.626;2023-05-18T15:30:38;16.80;99.90